Terminal Aerodrome Forecast
Issued by NWS Grand Junction, CO

Home | Current Version | Previous Version | Text Only | Print | Product List | Glossary On
Versions: 1 2 3 4 5 6 7 8 9 10 11 12 13 14 15 16 17 18 19 20 21 22 23 24 25 26 27 28 29 30 31 32 33 34 35 36 37 38
000
FTUS45 KGJT 250542 AAB
TAFGJT
TAF AMD
KGJT 250542Z 2506/2606 05006KT P6SM BKN060
     FM250800 08005KT P6SM SCT060 BKN100
     FM251000 12005KT P6SM SCT100
     FM252200 32005KT P6SM SKC
     FM260200 02005KT P6SM SKC=

USA.gov is the U.S. government's official web portal to all federal, state and local government web resources and services.